Amed Rosario

Amed Rosario, SS - New York Mets

Age DR Pos Elig. Roto Cat. MySquad
22 263 SS Sn 

Season Stats

Season Pos GP AB H Avg. HR R RBI 1B 2B 3B TB SO BB SB CS HBP Fan Pts
2018 (proj) SS 146 574 148 0.258 10 59 59 107 24 7 206 127 29 22 8 5 497.00
2018 SS 154 554 143 0.258 9 76 52 26 8 212 119 29 24 11 3 509.50
2017 SS 46 165 41 0.248 4 16 10 33 4 4 65 49 3 7 3 2 141.00

Rosario's long-term upside is probably better than his 2018 outlook, as he is just 22 years old and will likely be the everyday shortstop for the Mets this season. His minor league numbers have been solid, but we haven't seen the power evolve yet the way many scouts thought it might. Still, Rosario did hit better than .325 over his last 200+ minor league games before spending the final two months of last season in the bigs. Assuming he finds a decent spot in the order and the Mets are willing to turn him loose on the basepaths, Rosario should be solid source of steals and runs out of a middle infield spot. He's a borderline fantasy starter at this stage of his career, but makes for a nice insurance policy with upside.

2018 Game Stats

Date Matchup AB Avg. H 2B 3B HR R RBI TB SO BB SB CS HBP Fan Pts
3/29/18 STL@NYM 4 0.500 2 0 0 0 2 2 2 1 0 0 0 0 8.00
3/31/18 STL@NYM 3 0.000 0 0 0 0 0 0 0 2 1 0 0 0 0.00
4/1/18 STL@NYM 4 0.250 1 0 0 0 0 1 1 1 0 0 0 0 3.00
4/3/18 PHI@NYM 1 0.000 0 0 0 0 0 0 0 1 0 0 0 0 0.00
4/4/18 PHI@NYM 3 0.667 2 0 1 0 0 2 4 1 0 0 1 0 8.50
4/7/18 NYM@WAS 4 0.250 1 0 0 0 1 0 1 1 0 0 0 0 3.00
4/8/18 NYM@WAS 4 0.000 0 0 0 0 0 0 0 3 0 0 0 0 0.00
4/9/18 NYM@MIA 4 0.500 2 1 0 0 1 1 3 2 0 0 0 0 7.00
4/10/18 NYM@MIA 4 0.250 1 1 0 0 2 0 2 1 0 0 0 0 5.00
4/11/18 NYM@MIA 4 0.000 0 0 0 0 0 0 0 1 0 0 0 0 0.00
4/13/18 MIL@NYM 3 0.000 0 0 0 0 0 0 0 0 0 0 0 0 0.00
4/14/18 MIL@NYM 3 0.333 1 0 0 0 0 0 1 0 0 0 0 0 2.00
4/15/18 MIL@NYM 2 0.000 0 0 0 0 0 0 0 1 1 0 0 1 0.00
4/16/18 WAS@NYM 3 0.000 0 0 0 0 0 1 0 0 0 0 1 0 1.50
4/17/18 WAS@NYM 4 0.500 2 1 0 0 1 0 3 1 0 0 0 0 6.00
4/18/18 WAS@NYM 3 0.000 0 0 0 0 1 0 0 0 1 0 0 0 1.00
4/19/18 NYM@ATL 3 0.333 1 0 0 0 1 0 1 1 0 0 0 0 3.00
4/20/18 NYM@ATL 4 0.500 2 2 0 0 1 1 4 1 0 0 0 0 8.00
4/24/18 NYM@STL 3 0.000 0 0 0 0 0 0 0 1 1 0 0 0 0.00
4/25/18 NYM@STL 3 0.333 1 0 0 0 0 0 1 1 0 0 0 0 2.00
4/26/18 NYM@STL 5 0.200 1 0 0 0 1 0 1 0 0 0 0 0 3.00
4/27/18 NYM@SD 4 0.250 1 0 0 0 0 0 1 1 0 0 0 0 2.00
4/28/18 NYM@SD 4 0.250 1 0 0 0 0 0 1 1 0 0 0 0 2.00
4/29/18 NYM@SD 1 0.000 0 0 0 0 0 0 0 0 0 0 0 0 0.00
5/1/18 ATL@NYM 4 0.000 0 0 0 0 0 0 0 2 0 0 0 0 0.00
5/2/18 ATL@NYM 3 0.333 1 0 0 0 0 0 1 1 0 0 0 0 2.00
5/3/18 ATL@NYM 3 0.000 0 0 0 0 0 0 0 0 0 0 0 0 0.00
5/4/18 COL@NYM 4 0.500 2 0 0 0 1 1 2 0 0 0 0 0 6.00
5/5/18 COL@NYM 3 0.333 1 0 0 0 0 0 1 0 0 0 0 0 2.00
5/6/18 COL@NYM 3 0.000 0 0 0 0 0 0 0 1 0 0 0 0 0.00
5/7/18 NYM@CIN 3 0.667 2 2 0 0 0 1 4 1 0 0 0 0 7.00
5/8/18 NYM@CIN 2 0.500 1 0 0 0 0 0 1 0 0 0 0 0 2.00
5/9/18 NYM@CIN 4 0.250 1 0 0 0 0 0 1 1 0 1 0 0 2.50
5/11/18 NYM@PHI 2 0.000 0 0 0 0 0 0 0 0 0 0 0 0 0.00
5/13/18 NYM@PHI 4 0.250 1 0 0 0 0 0 1 1 0 0 1 0 2.50
5/15/18 TOR@NYM 4 0.750 3 1 0 0 2 2 4 0 0 0 0 0 11.00
5/16/18 TOR@NYM 3 0.000 0 0 0 0 0 0 0 1 0 0 0 0 0.00
5/18/18 ARZ@NYM 4 0.000 0 0 0 0 0 0 0 0 0 0 0 0 0.00
5/19/18 ARZ@NYM 4 0.000 0 0 0 0 0 0 0 1 0 0 0 0 0.00
5/20/18 ARZ@NYM 3 0.667 2 0 0 2 2 2 8 0 0 0 0 0 16.00

New York Mets Roster

1 C Travis d'Arnaud C
2 C Kevin Plawecki C
1 1B Adrian Gonzalez 1B
2 1B Dominic Smith 1B
3 1B Phillip Evans SS
4 1B T.J. Rivera 1B, 2B, 3B
1 2B Asdrubal Cabrera 2B, SS, 3B
2 2B Wilmer Flores 1B, 2B, 3B
1 3B Todd Frazier 1B, 3B, DH
2 3B David Wright 3B
1 SS Amed Rosario SS
2 SS Jose Reyes 2B, SS, 3B
1 LF Yoenis Cespedes OF
1 CF Juan Lagares OF
2 CF Brandon Nimmo OF
1 RF Jay Bruce 1B, OF
2 RF Michael Conforto OF
1 SP Noah Syndergaard SP
2 SP Jacob deGrom SP
3 SP Matt Harvey SP
4 SP Steven Matz SP
5 SP Jason Vargas P
6 SP Seth Lugo SP, RP
7 SP Rafael Montero SP, RP
1 RP Jeurys Familia RP